Station: Gayndah

  Atmospheric Gas Attenuation - ITU Rec 676-11   --------------- db/100km ---------------
Date Time Temp RH % AH g/m3 Dew Point Wind Direction Speed kph Gust kph Barometer mB Rainfall Since 9am 24GHz 47GHz 76GHz 122GHz 134GHz 241GHz
27 01:50 24.1 80 17.5 20.4 6 6 1009.4 0 37.9 37.5 70.8 187.3 203.9 708.1
27 01:40 24.2 80 17.6 20.5 9 9 1009.4 0 38.1 37.6 71.2 188.3 205.2 712.4
27 01:30 24.4 79 17.58 20.5 7 11 1009.4 0 38.0 37.5 70.9 187.5 204.3 709.5
27 01:20 24.4 79 17.58 20.5 7 9 1009.5 0 38.0 37.5 70.9 187.6 204.3 709.5
27 01:10 24.5 79 17.68 20.6 7 9 1009.7 0 38.2 37.6 71.3 188.6 205.6 713.9
27 01:00 24.6 78 17.56 20.5 11 19 1009.7 0 38.0 37.4 70.7 186.9 203.5 706.7
27 00:50 24.8 77 17.53 20.5 11 15 1010 0 37.9 37.3 70.4 186.0 202.6 703.4
27 00:40 24.9 76 17.4 20.5 9 13 1010.2 0 37.6 37.0 69.7 184.3 200.4 695.9
27 00:30 24.9 77 17.63 20.6 11 15 1010.2 0 38.1 37.4 70.7 187.0 203.8 707.8
27 00:20 25.1 75 17.36 20.5 11 13 1010.3 0 37.5 36.8 69.3 183.3 199.3 692.1
27 00:10 25.1 75 17.36 20.5 7 9 1010.4 0 37.5 36.8 69.3 183.3 199.3 692.1
27 00:00 25.2 76 17.69 20.7 9 17 1010.3 0 38.2 37.4 70.7 187.1 203.9 708.2
26 23:50 25.3 75 17.56 20.5 9 11 1010.4 0 37.9 37.1 70.1 185.3 201.7 700.6
26 23:40 25.3 75 17.56 20.5 11 15 1010.5 0 37.9 37.1 70.1 185.3 201.7 700.6
26 23:30 25.4 75 17.66 20.6 13 19 1010.4 0 38.1 37.2 70.4 186.2 202.9 704.8
26 23:20 25.4 75 17.66 20.6 13 17 1010.6 0 38.1 37.3 70.4 186.2 203.0 704.9
26 23:10 25.4 75 17.66 20.6 9 11 1010.7 0 38.1 37.3 70.4 186.3 203.0 705.0
26 23:00 25.5 74 17.52 20.5 13 17 1010.7 0 37.8 37.0 69.7 184.3 200.6 696.8
26 22:50 25.7 74 17.72 20.7 15 17 1010.7 0 38.2 37.2 70.4 186.3 203.1 705.3
26 22:40 25.7 73 17.48 20.5 11 13 1010.7 0 37.7 36.8 69.3 183.4 199.5 693.0
26 22:30 25.8 72 17.33 20.4 13 17 1010.7 0 37.4 36.5 68.6 181.3 197.1 684.4
26 22:20 25.9 71 17.19 20.2 13 17 1010.7 0 37.0 36.2 67.9 179.5 194.8 676.4
26 22:10 26 70 17.04 20.1 17 20 1010.7 0 36.7 35.9 67.1 177.5 192.3 668.0
26 22:00 26.2 69 16.99 20.1 15 20 1010.8 0 36.6 35.7 66.7 176.4 191.1 663.8
26 21:50 26.3 66 16.34 19.6 15 19 1010.7 0 35.2 34.5 63.8 168.6 181.6 630.6
26 21:40 26.4 66 16.43 19.5 17 19 1010.7 0 35.4 34.6 64.1 169.5 182.6 634.2
26 21:30 26.5 65 16.27 19.4 17 24 1010.7 0 35.0 34.3 63.3 167.4 180.1 625.6
26 21:20 26.6 64 16.11 19.2 17 20 1010.5 0 34.7 34.0 62.6 165.3 177.6 616.9
26 21:10 26.8 64 16.29 19.4 19 22 1010.5 0 35.1 34.2 63.2 167.0 179.7 624.0
26 21:00 26.9 63 16.12 19.3 19 28 1010.2 0 34.7 33.9 62.3 164.8 177.0 614.8
26 20:50 27 62 15.96 19.3 17 19 1010.2 0 34.4 33.6 61.6 162.8 174.6 606.3
26 20:40 27.1 62 16.05 19.2 20 24 1010.1 0 34.5 33.7 61.9 163.5 175.6 609.8
26 20:30 27.3 61 15.96 19.1 19 26 1010 0 34.3 33.5 61.3 162.1 173.9 603.9
26 20:20 27.4 59 15.52 18.9 17 19 1009.9 0 33.4 32.7 59.4 157.0 167.6 582.1
26 20:10 27.6 58 15.43 18.6 19 19 1009.8 0 33.2 32.4 58.9 155.6 166.0 576.3
26 20:00 27.8 57 15.33 18.5 19 26 1009.6 0 33.0 32.2 58.3 154.1 164.2 570.1
26 19:50 28.1 56 15.31 18.7 15 17 1009.3 0 32.9 32.0 58.0 153.2 163.2 566.8
26 19:40 28.3 55 15.21 18.6 20 24 1009 0 32.7 31.8 57.4 151.7 161.4 560.6
26 19:30 28.4 56 15.57 18.8 20 28 1008.9 0 33.4 32.3 58.8 155.4 166.0 576.6
26 19:20 28.8 54 15.34 18.8 24 30 1008.7 0 32.9 31.8 57.6 152.1 162.1 562.9
26 19:10 29.1 52 15.02 18.5 24 28 1008.6 0 32.2 31.2 56.1 148.1 157.2 546.1
26 19:00 29.4 52 15.27 18.5 22 33 1008.3 0 32.7 31.5 56.8 150.2 159.9 555.3
26 18:50 29.8 50 15 18.5 20 26 1008 0 32.1 30.9 55.5 146.5 155.5 540.1
26 18:40 30 49 14.86 18.4 20 24 1007.8 0 31.8 30.6 54.8 144.6 153.3 532.4
26 18:30 30.3 49 15.11 18.4 22 32 1007.5 0 32.3 30.9 55.5 146.7 155.9 541.4
26 18:20 30.7 47 14.8 18.1 22 26 1007.2 0 31.6 30.2 54.0 142.7 151.1 524.8
26 18:10 31.1 46 14.8 18.1 20 22 1007.1 0 31.6 30.1 53.7 142.0 150.3 522.1
26 18:00 31.4 44 14.39 17.7 20 32 1007 0 30.7 29.3 52.0 137.2 144.6 502.2
26 17:50 31.8 42 14.03 17.6 22 32 1006.8 0 30.0 28.7 50.3 132.9 139.4 484.2
26 17:40 32.3 40 13.73 17.3 20 24 1006.7 0 29.3 28.0 48.9 129.2 134.9 468.4
26 17:30 32.3 40 13.73 17 20 32 1006.6 0 29.3 28.0 48.9 129.1 134.9 468.4
26 17:20 32.8 38 13.39 16.6 20 26 1006.6 0 28.6 27.4 47.4 125.1 130.0 451.3
26 17:10 33.8 31 11.52 14.3 17 19 1006.3 0 24.7 24.4 40.3 106.2 107.1 371.3
26 17:00 33.9 31 11.58 14.4 15 22 1006.3 0 24.8 24.5 40.5 106.6 107.6 373.2
26 16:50 34 28 10.51 13.4 15 17 1006.3 0 22.6 23.0 36.9 97.0 95.9 332.0
26 16:40 34.2 29 11 14.1 9 13 1006.2 0 23.6 23.6 38.4 101.1 100.9 349.6
26 16:30 34 30 11.26 14 11 20 1006.1 0 24.1 24.0 39.3 103.6 104.0 360.4
26 16:20 34.6 28 10.85 13.9 19 22 1006.1 0 23.2 23.3 37.7 99.3 98.8 342.3
26 16:10 34.1 30 11.32 14.5 15 19 1006.1 0 24.2 24.1 39.5 104.0 104.5 362.2
26 16:00 34.5 30 11.56 14.4 13 22 1006.1 0 24.7 24.3 40.1 105.6 106.6 369.6
26 15:50 34.7 29 11.29 14.5 15 17 1006.1 0 24.1 23.9 39.1 103.0 103.4 358.5
26 15:40 34.4 30 11.5 14.8 11 15 1006.2 0 24.6 24.3 39.9 105.3 106.1 367.8
26 15:30 34.7 31 12.07 15.1 15 24 1006.2 0 25.7 25.0 41.7 110.0 112.0 388.5
26 15:20 34.1 30 11.32 14.5 11 13 1006.3 0 24.2 24.1 39.5 104.0 104.5 362.3
26 15:10 34.6 31 12.01 15 13 17 1006.4 0 25.6 24.9 41.6 109.6 111.4 386.7
26 15:00 33.7 32 11.82 14.7 13 24 1006.5 0 25.3 24.9 41.4 109.1 110.6 383.5
26 14:50 34.2 31 11.76 15.1 17 19 1006.5 0 25.1 24.7 40.9 107.9 109.2 378.9
26 14:40 33.3 31 11.22 14.3 7 9 1006.6 0 24.1 24.2 39.6 104.2 104.5 362.0
26 14:30 33.9 33 12.32 15.4 13 24 1006.7 0 26.3 25.5 43.0 113.4 115.9 402.3
26 14:20 34.5 33 12.72 16.3 13 17 1006.8 0 27.1 25.9 44.1 116.2 119.6 415.2
26 14:10 34.1 34 12.83 16.4 17 20 1006.9 0 27.3 26.2 44.7 117.8 121.5 421.6
26 14:00 33.6 34 12.5 15.6 17 26 1007 0 26.7 25.9 43.8 115.5 118.4 411.0
26 13:50 34.6 33 12.78 16.4 17 24 1006.9 0 27.2 26.0 44.2 116.7 120.1 417.1
26 13:40 33.3 34 12.3 15.7 13 15 1007.1 0 26.3 25.7 43.3 114.1 116.6 404.6
26 13:30 33.6 34 12.5 16 9 22 1007.3 0 26.7 25.9 43.8 115.5 118.5 411.1
26 13:20 33.3 36 13.02 16.2 17 20 1007.6 0 27.8 26.7 45.8 120.9 124.9 433.8
26 13:10 33.8 35 13 16.6 22 28 1007.6 0 27.7 26.6 45.5 119.9 123.9 430.3
26 13:00 33.5 36 13.16 16.8 13 24 1007.8 0 28.1 26.9 46.2 121.9 126.3 438.5
26 12:50 33.1 37 13.25 16.8 15 24 1008.1 0 28.3 27.1 46.8 123.4 128.0 444.4
26 12:40 33 37 13.18 16.7 7 9 1008.3 0 28.1 27.1 46.6 122.9 127.4 442.2
26 12:30 32.5 37 12.83 16.3 13 24 1008.3 0 27.4 26.7 45.6 120.3 124.0 430.5
26 12:20 32.2 39 13.31 16.8 13 17 1008.4 0 28.4 27.5 47.5 125.4 130.2 452.0
26 12:10 32.3 38 13.04 16.5 9 11 1008.6 0 27.9 27.1 46.5 122.7 126.9 440.3
26 12:00 32.2 40 13.65 16.9 9 17 1008.7 0 29.1 28.0 48.8 128.8 134.3 466.4
26 11:50 31.7 40 13.29 16.8 9 13 1009 0 28.4 27.7 47.8 126.1 130.8 454.2
26 11:40 31.3 41 13.34 16.8 19 20 1009.1 0 28.6 27.9 48.2 127.2 132.1 458.6
26 11:30 31.3 42 13.66 17.2 11 24 1009.3 0 29.2 28.3 49.4 130.4 136.0 472.3
26 11:20 30.4 43 13.33 16.7 6 9 1009.3 0 28.6 28.1 48.7 128.5 133.5 463.4
26 11:10 31.1 44 14.16 17.4 13 17 1009.4 0 30.3 29.2 51.4 135.7 142.5 495.0
26 11:00 30.1 46 14.03 17.5 7 17 1009.6 0 30.1 29.3 51.6 136.1 142.8 495.6
26 10:50 29.7 48 14.32 17.5 2 7 1009.9 0 30.7 29.9 53.0 139.8 147.2 511.1
26 10:40 29.4 47 13.8 17.2 11 15 1010.1 0 29.7 29.2 51.2 135.0 141.2 490.1
26 10:30 29.2 49 14.23 17.4 6 17 1010.1 0 30.6 29.9 53.0 139.8 147.0 510.4
26 10:20 29.2 51 14.81 18 7 9 1010.2 0 31.8 30.9 55.2 145.9 154.5 536.5
26 10:10 29.3 52 15.18 18.7 6 7 1010.4 0 32.5 31.4 56.7 149.7 159.1 552.7
26 10:00 28.9 52 14.86 18.1 13 24 1010.4 0 31.9 31.1 55.7 147.0 155.8 540.9
26 09:50 28.1 56 15.31 18.5 11 13 1010.5 0 32.9 32.1 58.1 153.4 163.4 567.3
26 09:40 27.8 56 15.06 18.2 2 6 1010.6 0 32.4 31.8 57.3 151.3 160.7 557.9
26 09:30 28.7 56 15.83 19.1 7 15 1010.5 0 33.9 32.7 59.7 157.9 169.1 587.2
26 09:20 27.2 61 15.87 19.2 7 9 1010.6 0 34.1 33.4 61.1 161.4 173.0 600.6

Last Refresh: 27-Feb-2021 02:32:33

Most of the information presented on this site is sourced from the Bureau of Meteorology.  Copyright in all material sourced from the Bureau of Meteorology resides with the Commonwealth of Australia.